Time;durP1;ratioP1;P1;durP2;ratioP2;P2;SDS_P1;SDS_P2;PMS_P1;PMS_P2;Temp;Humidity;BMP_temperature;BMP_pressure;BME280_temperature;BME280_humidity;BME280_pressure;Samples;Min_cycle;Max_cycle;Signal;HPM_P1;HPM_P2
2024/01/12 00:02:03;;;;;;;6.10;3.70;;;19.00;30.70;;;;;;5006774;28;20516;-60
2024/01/12 00:04:28;;;;;;;4.35;3.95;;;19.10;30.70;;;;;;5003486;28;20022;-60
2024/01/12 00:06:54;;;;;;;4.75;3.70;;;19.10;30.70;;;;;;5003512;28;20027;-61
2024/01/12 00:09:20;;;;;;;5.07;3.95;;;19.00;30.70;;;;;;5002873;28;20116;-61
2024/01/12 00:11:46;;;;;;;5.70;4.00;;;19.00;30.70;;;;;;5001515;28;20037;-60
2024/01/12 00:14:14;;;;;;;4.85;3.50;;;19.00;30.70;;;;;;5001349;28;20089;-61
2024/01/12 00:16:44;;;;;;;5.97;4.25;;;19.00;30.70;;;;;;5005506;28;20048;-61
2024/01/12 00:19:11;;;;;;;5.65;3.75;;;19.00;30.70;;;;;;5002363;28;20029;-61
2024/01/12 00:21:37;;;;;;;4.78;3.83;;;19.00;30.70;;;;;;5000281;28;20076;-61
2024/01/12 00:24:03;;;;;;;5.22;3.75;;;19.00;30.70;;;;;;5005065;28;20389;-61
2024/01/12 00:26:28;;;;;;;4.57;3.63;;;19.00;30.80;;;;;;5004325;28;20058;-61
2024/01/12 00:28:54;;;;;;;5.05;3.90;;;19.00;30.70;;;;;;4999552;28;20109;-61
2024/01/12 00:31:20;;;;;;;4.95;3.97;;;19.00;30.80;;;;;;4998810;28;20023;-61
2024/01/12 00:33:46;;;;;;;5.47;3.67;;;19.00;30.80;;;;;;5001434;28;20044;-61
2024/01/12 00:36:11;;;;;;;4.90;3.75;;;19.00;30.80;;;;;;5001335;28;20035;-61
2024/01/12 00:38:37;;;;;;;5.18;4.05;;;19.00;30.80;;;;;;5003438;28;20473;-60
2024/01/12 00:41:03;;;;;;;5.55;4.10;;;19.00;30.80;;;;;;4996796;28;20128;-61
2024/01/12 00:43:29;;;;;;;4.68;4.18;;;19.00;30.80;;;;;;5007241;28;20023;-61
2024/01/12 00:45:55;;;;;;;6.47;4.93;;;18.90;30.80;;;;;;4996887;28;20472;-60
2024/01/12 00:48:20;;;;;;;5.72;4.38;;;18.90;31.40;;;;;;5005772;28;20112;-61
2024/01/12 00:50:47;;;;;;;5.80;4.35;;;18.90;30.90;;;;;;5012752;28;20434;-61
2024/01/12 00:53:13;;;;;;;4.80;3.67;;;18.90;30.80;;;;;;5010916;28;20404;-61
2024/01/12 00:55:38;;;;;;;5.85;4.15;;;18.90;30.80;;;;;;5000320;28;20034;-60
2024/01/12 00:58:04;;;;;;;5.38;4.07;;;18.90;30.80;;;;;;4999601;28;20157;-62
2024/01/12 01:00:31;;;;;;;5.10;4.00;;;18.90;30.90;;;;;;5009587;28;20807;-62
2024/01/12 01:02:58;;;;;;;5.68;4.10;;;18.90;30.90;;;;;;4997835;28;20026;-61
2024/01/12 01:05:24;;;;;;;4.63;3.53;;;18.90;30.90;;;;;;5006311;28;20089;-60
2024/01/12 01:07:49;;;;;;;5.22;3.80;;;18.90;31.50;;;;;;5005115;28;20045;-60
2024/01/12 01:10:15;;;;;;;5.35;3.53;;;18.90;30.90;;;;;;5003112;28;20058;-61
2024/01/12 01:12:41;;;;;;;5.03;3.88;;;18.90;30.90;;;;;;4998659;28;20330;-60
2024/01/12 01:15:07;;;;;;;4.88;3.50;;;18.90;30.90;;;;;;5009289;28;20046;-61
2024/01/12 01:17:33;;;;;;;3.80;2.97;;;18.90;30.90;;;;;;5003668;28;20037;-61
2024/01/12 01:19:59;;;;;;;4.57;3.28;;;18.90;31.50;;;;;;5005976;28;20104;-61
2024/01/12 01:22:25;;;;;;;5.10;3.38;;;18.90;31.00;;;;;;5007320;28;20030;-61
2024/01/12 01:24:50;;;;;;;3.90;2.63;;;18.90;31.00;;;;;;5007013;28;20018;-61
2024/01/12 01:27:16;;;;;;;5.40;3.25;;;18.90;31.10;;;;;;5011236;28;20033;-61
2024/01/12 01:29:42;;;;;;;3.80;2.38;;;18.90;31.00;;;;;;4992958;28;20049;-61
2024/01/12 01:32:08;;;;;;;4.15;2.72;;;18.80;31.00;;;;;;5007715;28;20109;-60
2024/01/12 01:34:34;;;;;;;3.08;2.42;;;18.80;31.00;;;;;;5008060;28;20029;-60
2024/01/12 01:37:02;;;;;;;3.05;2.30;;;18.90;31.10;;;;;;5000102;28;20401;-61
2024/01/12 01:39:28;;;;;;;3.65;2.28;;;18.80;31.00;;;;;;5001696;28;20137;-60
2024/01/12 01:41:54;;;;;;;4.45;2.50;;;18.80;31.00;;;;;;5002854;28;20022;-60
2024/01/12 01:44:20;;;;;;;4.05;2.53;;;18.80;31.00;;;;;;5004854;28;20026;-61
2024/01/12 01:46:46;;;;;;;3.33;2.08;;;18.80;31.00;;;;;;5007271;28;20088;-61
2024/01/12 01:49:12;;;;;;;3.47;2.30;;;18.80;31.00;;;;;;5008016;28;20063;-60
2024/01/12 01:51:39;;;;;;;3.28;2.17;;;18.80;31.00;;;;;;5011638;28;20028;-61
2024/01/12 01:54:05;;;;;;;3.42;2.03;;;18.80;31.00;;;;;;5009814;28;20037;-61
2024/01/12 01:56:31;;;;;;;3.65;2.15;;;18.80;31.00;;;;;;5008806;28;20036;-61
2024/01/12 01:58:56;;;;;;;3.10;2.00;;;18.70;31.00;;;;;;4998199;28;20102;-61
2024/01/12 02:01:22;;;;;;;3.85;2.10;;;18.80;31.00;;;;;;5003056;28;20236;-60
2024/01/12 02:03:48;;;;;;;4.15;2.38;;;18.80;31.00;;;;;;5007605;28;20023;-60
2024/01/12 02:06:15;;;;;;;3.40;2.08;;;18.80;31.00;;;;;;5012157;28;20034;-60
2024/01/12 02:08:41;;;;;;;3.65;2.40;;;18.80;31.00;;;;;;5005079;28;20101;-60
2024/01/12 02:11:07;;;;;;;2.80;1.98;;;18.80;31.00;;;;;;4998949;28;20117;-63
2024/01/12 02:13:33;;;;;;;3.95;2.15;;;18.80;31.00;;;;;;5001405;28;20536;-61
2024/01/12 02:15:59;;;;;;;5.05;2.63;;;18.70;31.00;;;;;;5000607;28;20437;-60
2024/01/12 02:18:24;;;;;;;3.85;2.10;;;18.70;31.00;;;;;;5001664;28;20356;-60
2024/01/12 02:20:57;;;;;;;4.15;1.95;;;18.70;31.00;;;;;;5007346;28;20038;-61
2024/01/12 02:23:22;;;;;;;3.85;2.33;;;18.70;31.10;;;;;;5007871;28;20381;-60
2024/01/12 02:25:49;;;;;;;3.92;1.88;;;18.70;31.10;;;;;;5008857;28;20022;-61
2024/01/12 02:28:15;;;;;;;3.17;2.05;;;18.70;31.10;;;;;;5012539;28;20036;-60
2024/01/12 02:30:42;;;;;;;4.90;2.47;;;18.70;31.10;;;;;;4999384;28;20026;-60
2024/01/12 02:33:08;;;;;;;3.28;2.08;;;18.70;31.10;;;;;;5007111;28;20045;-60
2024/01/12 02:35:34;;;;;;;4.05;2.13;;;18.70;31.10;;;;;;5001077;28;20360;-60
2024/01/12 02:38:00;;;;;;;3.47;1.70;;;18.70;31.10;;;;;;5002596;28;20038;-61
2024/01/12 02:40:26;;;;;;;3.10;1.83;;;18.70;31.20;;;;;;5005676;28;20034;-61
2024/01/12 02:42:53;;;;;;;3.45;2.03;;;18.70;31.10;;;;;;5007366;28;20034;-60
2024/01/12 02:45:19;;;;;;;3.47;1.80;;;18.60;31.10;;;;;;5013100;28;20037;-61
2024/01/12 02:47:44;;;;;;;2.72;2.05;;;18.70;31.10;;;;;;5003363;28;20034;-61
2024/01/12 02:50:10;;;;;;;3.00;2.00;;;18.60;31.10;;;;;;5010687;28;20022;-61
2024/01/12 02:52:36;;;;;;;3.40;1.75;;;18.60;31.10;;;;;;5013410;28;20026;-60
2024/01/12 02:55:03;;;;;;;4.15;1.98;;;18.60;31.10;;;;;;5005130;28;20084;-60
2024/01/12 02:57:30;;;;;;;3.35;1.73;;;18.60;31.10;;;;;;5008338;28;20103;-61
2024/01/12 02:59:55;;;;;;;3.53;1.85;;;18.60;31.10;;;;;;4995493;28;20125;-61
2024/01/12 03:02:21;;;;;;;4.43;2.03;;;18.60;31.10;;;;;;5000603;28;20168;-60
2024/01/12 03:04:47;;;;;;;3.40;1.92;;;18.60;31.10;;;;;;5007892;28;20022;-60
2024/01/12 03:07:13;;;;;;;3.95;2.08;;;18.60;31.10;;;;;;5006554;28;20105;-61
2024/01/12 03:09:39;;;;;;;4.25;1.92;;;18.60;31.20;;;;;;5003874;28;20062;-61
2024/01/12 03:12:05;;;;;;;2.67;1.75;;;18.60;31.20;;;;;;5005272;28;20049;-61
2024/01/12 03:14:31;;;;;;;4.30;2.38;;;18.60;31.20;;;;;;4997434;28;20046;-60
2024/01/12 03:16:56;;;;;;;3.42;1.85;;;18.60;31.20;;;;;;4996483;28;20038;-60
2024/01/12 03:19:22;;;;;;;4.63;1.85;;;18.60;31.20;;;;;;5001455;28;20077;-60
2024/01/12 03:21:48;;;;;;;3.15;1.98;;;18.60;31.20;;;;;;5002143;28;20034;-60
2024/01/12 03:24:14;;;;;;;3.63;1.63;;;18.60;31.20;;;;;;4996767;28;20030;-61
2024/01/12 03:26:40;;;;;;;3.08;1.70;;;18.60;31.20;;;;;;5007696;28;20022;-60
2024/01/12 03:29:06;;;;;;;3.53;1.92;;;18.60;31.20;;;;;;5000155;28;20354;-60
2024/01/12 03:31:32;;;;;;;4.15;1.60;;;18.60;31.20;;;;;;5011547;28;20018;-60
2024/01/12 03:33:58;;;;;;;3.63;1.67;;;18.60;31.20;;;;;;5005175;28;20036;-61
2024/01/12 03:36:27;;;;;;;3.35;1.77;;;18.60;31.20;;;;;;5006669;28;20034;-59
2024/01/12 03:38:54;;;;;;;3.15;1.48;;;18.50;31.20;;;;;;5002178;28;20030;-61
2024/01/12 03:41:20;;;;;;;5.13;1.90;;;18.50;31.20;;;;;;4999680;28;20046;-61
2024/01/12 03:43:46;;;;;;;3.17;1.60;;;18.50;31.20;;;;;;5007723;28;20027;-59
2024/01/12 03:46:12;;;;;;;4.35;1.27;;;18.50;31.20;;;;;;5000227;28;20044;-61
2024/01/12 03:48:40;;;;;;;3.08;1.40;;;18.50;31.20;;;;;;5004243;28;20452;-60
2024/01/12 03:51:06;;;;;;;5.45;1.85;;;18.50;31.20;;;;;;5002400;28;20030;-60
2024/01/12 03:53:32;;;;;;;3.65;1.48;;;18.60;31.30;;;;;;5005915;28;20441;-61
2024/01/12 03:55:58;;;;;;;3.28;1.65;;;18.50;31.20;;;;;;5004557;28;20513;-61
2024/01/12 03:58:23;;;;;;;3.10;1.33;;;18.50;31.20;;;;;;5001139;28;20092;-61
2024/01/12 04:00:49;;;;;;;3.33;1.40;;;18.50;31.30;;;;;;4994603;28;20113;-60
2024/01/12 04:03:15;;;;;;;3.78;1.50;;;18.50;31.20;;;;;;5000694;28;20022;-60
2024/01/12 04:05:41;;;;;;;3.50;2.08;;;18.50;31.30;;;;;;5005181;28;20335;-60
2024/01/12 04:08:06;;;;;;;2.75;1.38;;;18.50;31.20;;;;;;5002484;28;20034;-60
2024/01/12 04:10:32;;;;;;;2.72;1.48;;;18.50;31.30;;;;;;4995896;28;20069;-60
2024/01/12 04:12:58;;;;;;;3.33;1.63;;;18.50;31.30;;;;;;5004809;28;20085;-61
2024/01/12 04:15:24;;;;;;;3.60;1.60;;;18.50;31.30;;;;;;4997827;28;20105;-61
2024/01/12 04:17:49;;;;;;;4.68;1.70;;;18.50;31.30;;;;;;4982456;28;20030;-61
2024/01/12 04:20:15;;;;;;;2.83;1.45;;;18.50;31.30;;;;;;4999187;28;20033;-61
2024/01/12 04:22:41;;;;;;;2.97;1.60;;;18.50;31.30;;;;;;4997923;28;20022;-60
2024/01/12 04:25:07;;;;;;;2.78;1.42;;;18.50;31.30;;;;;;5012914;28;20077;-60
2024/01/12 04:27:33;;;;;;;2.40;1.20;;;18.50;31.30;;;;;;5012990;28;20033;-60
2024/01/12 04:29:59;;;;;;;3.22;1.55;;;18.50;31.30;;;;;;5007833;28;20365;-60
2024/01/12 04:32:26;;;;;;;2.42;1.33;;;18.50;31.30;;;;;;5003417;28;20097;-60
2024/01/12 04:34:52;;;;;;;3.15;1.50;;;18.50;31.30;;;;;;5001808;28;20026;-60
2024/01/12 04:37:17;;;;;;;4.50;1.80;;;18.40;31.30;;;;;;5006671;28;20032;-60
2024/01/12 04:39:43;;;;;;;3.83;1.73;;;18.40;31.30;;;;;;5010004;28;20045;-60
2024/01/12 04:42:09;;;;;;;3.00;1.40;;;18.50;31.30;;;;;;5014493;28;20348;-59
2024/01/12 04:44:35;;;;;;;2.85;1.20;;;18.50;31.30;;;;;;5005789;28;20421;-60
2024/01/12 04:47:00;;;;;;;2.47;1.25;;;18.40;31.30;;;;;;5007508;28;20030;-60
2024/01/12 04:49:29;;;;;;;3.13;1.17;;;18.50;31.40;;;;;;5003835;28;20405;-60
2024/01/12 04:51:55;;;;;;;4.70;1.20;;;18.50;31.40;;;;;;5008782;28;20426;-61
2024/01/12 04:54:21;;;;;;;3.95;1.48;;;18.50;31.40;;;;;;5009964;28;20029;-61
2024/01/12 04:56:46;;;;;;;3.40;1.30;;;18.40;31.30;;;;;;5010519;28;20436;-60
2024/01/12 04:59:12;;;;;;;2.50;1.08;;;18.50;31.40;;;;;;5005516;28;20044;-61
2024/01/12 05:01:38;;;;;;;2.40;1.30;;;18.50;31.40;;;;;;5007172;28;20164;-60
2024/01/12 05:04:04;;;;;;;4.03;1.40;;;18.40;31.30;;;;;;5007721;28;20037;-60
2024/01/12 05:06:29;;;;;;;2.35;1.13;;;18.50;31.40;;;;;;5006619;28;20109;-61
2024/01/12 05:08:55;;;;;;;3.15;1.10;;;18.50;31.40;;;;;;5003908;28;20054;-61
2024/01/12 05:11:22;;;;;;;3.70;1.20;;;18.40;31.40;;;;;;5009253;28;20034;-60
2024/01/12 05:13:47;;;;;;;3.22;1.50;;;18.40;31.40;;;;;;5005860;28;20049;-60
2024/01/12 05:16:13;;;;;;;3.33;1.20;;;18.40;31.40;;;;;;5003261;28;20030;-61
2024/01/12 05:18:39;;;;;;;2.83;1.40;;;18.40;31.40;;;;;;5004922;28;20060;-61
2024/01/12 05:21:05;;;;;;;3.75;1.42;;;18.40;31.40;;;;;;5006518;28;20042;-61
2024/01/12 05:23:30;;;;;;;2.13;1.00;;;18.40;31.40;;;;;;5005791;28;20071;-60
2024/01/12 05:25:56;;;;;;;3.53;1.50;;;18.40;31.40;;;;;;5006927;28;20030;-60
2024/01/12 05:28:22;;;;;;;3.33;1.58;;;18.40;31.40;;;;;;5006294;28;20036;-60
2024/01/12 05:30:48;;;;;;;2.67;1.20;;;18.40;31.40;;;;;;5002616;28;20038;-60
2024/01/12 05:33:13;;;;;;;4.13;1.40;;;18.40;31.50;;;;;;5007106;28;20365;-60
2024/01/12 05:35:39;;;;;;;2.40;0.88;;;18.40;31.40;;;;;;5004783;28;20023;-60
2024/01/12 05:38:05;;;;;;;1.92;0.93;;;18.40;31.50;;;;;;5005487;28;20381;-60
2024/01/12 05:40:31;;;;;;;2.88;1.10;;;18.40;31.50;;;;;;5000549;28;20473;-61
2024/01/12 05:42:56;;;;;;;1.88;0.98;;;18.40;31.50;;;;;;5006092;28;20032;-60
2024/01/12 05:45:22;;;;;;;3.10;1.30;;;18.40;31.50;;;;;;5003610;28;20036;-60
2024/01/12 05:47:48;;;;;;;3.58;1.33;;;18.40;31.50;;;;;;5004997;28;20022;-59
2024/01/12 05:50:14;;;;;;;3.97;1.60;;;18.40;31.50;;;;;;5006622;28;20038;-61
2024/01/12 05:52:39;;;;;;;3.78;1.35;;;18.40;32.10;;;;;;5007629;28;20031;-60
2024/01/12 05:55:06;;;;;;;3.20;1.40;;;18.40;31.50;;;;;;5005306;28;20026;-59
2024/01/12 05:57:33;;;;;;;3.60;1.48;;;18.40;31.50;;;;;;5011708;28;20057;-61
2024/01/12 05:59:59;;;;;;;3.67;1.50;;;18.40;31.50;;;;;;5005699;28;20361;-60
2024/01/12 06:02:24;;;;;;;3.95;1.30;;;18.40;32.20;;;;;;5005502;28;20026;-61
2024/01/12 06:04:50;;;;;;;1.73;1.00;;;18.30;31.50;;;;;;5004612;28;20036;-60
2024/01/12 06:07:17;;;;;;;3.08;1.20;;;18.30;31.50;;;;;;5003262;28;20026;-60
2024/01/12 06:09:42;;;;;;;2.22;1.10;;;18.40;31.60;;;;;;5008830;28;20026;-60
2024/01/12 06:12:09;;;;;;;2.42;1.15;;;18.40;31.60;;;;;;5002027;28;20022;-61
2024/01/12 06:14:35;;;;;;;3.15;1.27;;;18.40;31.60;;;;;;5003762;28;20058;-59
2024/01/12 06:17:01;;;;;;;3.30;1.25;;;18.30;31.50;;;;;;5005288;28;20113;-59
2024/01/12 06:19:27;;;;;;;2.83;1.10;;;18.40;31.60;;;;;;5003771;28;20163;-61
2024/01/12 06:21:53;;;;;;;2.25;0.90;;;18.40;31.60;;;;;;5000765;28;20458;-60
2024/01/12 06:24:19;;;;;;;2.30;0.88;;;18.30;31.60;;;;;;5009522;28;20173;-60
2024/01/12 06:26:44;;;;;;;3.70;1.10;;;18.40;31.70;;;;;;5001450;28;20350;-60
2024/01/12 06:29:10;;;;;;;3.25;1.27;;;18.30;31.60;;;;;;5004701;28;20118;-60
2024/01/12 06:31:36;;;;;;;2.38;1.27;;;18.30;31.60;;;;;;5004487;28;20096;-60
2024/01/12 06:34:02;;;;;;;2.75;1.30;;;18.30;31.70;;;;;;5001865;28;20031;-61
2024/01/12 06:36:27;;;;;;;2.03;1.00;;;18.30;31.70;;;;;;5006165;28;20176;-60
2024/01/12 06:38:53;;;;;;;2.80;1.13;;;18.30;31.70;;;;;;5005269;28;20361;-61
2024/01/12 06:41:19;;;;;;;2.03;0.95;;;18.30;31.70;;;;;;5001144;28;20160;-61
2024/01/12 06:43:45;;;;;;;2.47;0.98;;;18.30;31.70;;;;;;4998599;28;20188;-60
2024/01/12 06:46:11;;;;;;;2.10;1.00;;;18.30;31.70;;;;;;5003294;28;20030;-60
2024/01/12 06:48:37;;;;;;;3.10;1.27;;;18.30;31.70;;;;;;5004373;28;20037;-60
2024/01/12 06:51:03;;;;;;;2.88;1.08;;;18.30;31.70;;;;;;5006482;28;20021;-60
2024/01/12 06:53:29;;;;;;;2.55;1.00;;;18.30;31.70;;;;;;5004770;28;20034;-62
2024/01/12 06:55:54;;;;;;;2.40;1.02;;;18.30;31.70;;;;;;5003991;28;20032;-61
2024/01/12 06:58:21;;;;;;;2.47;1.20;;;18.30;31.80;;;;;;5002728;28;20357;-61
2024/01/12 07:00:47;;;;;;;3.08;1.15;;;18.30;31.70;;;;;;5000979;28;20038;-60
2024/01/12 07:03:13;;;;;;;3.08;1.35;;;18.30;31.80;;;;;;4998802;28;20038;-60
2024/01/12 07:05:38;;;;;;;3.15;1.52;;;18.30;31.80;;;;;;5000902;28;20030;-60
2024/01/12 07:08:04;;;;;;;2.75;1.00;;;18.20;31.70;;;;;;5000920;28;20030;-60
2024/01/12 07:10:30;;;;;;;3.05;1.00;;;18.30;31.80;;;;;;5004446;28;20034;-60
2024/01/12 07:12:56;;;;;;;2.55;1.10;;;18.20;31.70;;;;;;5001702;28;20153;-61
2024/01/12 07:15:22;;;;;;;1.67;0.90;;;18.30;31.80;;;;;;5002636;28;20406;-61
2024/01/12 07:17:50;;;;;;;2.17;1.02;;;18.30;31.80;;;;;;5001999;28;20041;-61
2024/01/12 07:20:17;;;;;;;2.13;1.13;;;18.20;31.80;;;;;;5004306;28;20044;-60
2024/01/12 07:22:43;;;;;;;2.30;0.90;;;18.30;31.80;;;;;;5003506;28;20030;-61
2024/01/12 07:25:09;;;;;;;2.05;1.10;;;18.20;31.80;;;;;;5004538;28;20022;-58
2024/01/12 07:27:35;;;;;;;2.67;1.02;;;18.20;31.80;;;;;;5003246;28;20096;-58
2024/01/12 07:30:01;;;;;;;2.97;1.15;;;18.30;31.90;;;;;;5002664;28;20446;-60
2024/01/12 07:32:26;;;;;;;2.55;1.02;;;18.30;31.90;;;;;;5004786;28;20029;-59
2024/01/12 07:34:52;;;;;;;1.30;0.88;;;18.20;31.90;;;;;;5008246;28;20091;-60
2024/01/12 07:37:18;;;;;;;3.65;1.20;;;18.30;32.00;;;;;;4998226;28;20027;-60
2024/01/12 07:39:44;;;;;;;2.72;1.02;;;18.30;32.00;;;;;;5001260;28;20023;-60
2024/01/12 07:42:09;;;;;;;2.60;1.20;;;18.20;32.00;;;;;;5002147;28;20029;-61
2024/01/12 07:44:37;;;;;;;2.90;1.30;;;18.20;32.00;;;;;;4999569;28;20037;-60
2024/01/12 07:47:03;;;;;;;3.00;1.20;;;18.30;32.00;;;;;;5003121;28;20034;-60
2024/01/12 07:49:28;;;;;;;3.45;1.30;;;18.20;32.00;;;;;;5002800;28;20036;-59
2024/01/12 07:51:54;;;;;;;2.22;1.23;;;18.20;32.00;;;;;;5006842;28;20025;-60
2024/01/12 07:54:20;;;;;;;4.80;1.58;;;18.20;32.00;;;;;;4996342;28;20037;-60
2024/01/12 07:56:46;;;;;;;3.00;1.15;;;18.30;32.10;;;;;;5002877;28;20021;-60
2024/01/12 07:59:12;;;;;;;3.50;1.70;;;18.20;32.10;;;;;;4998586;28;20034;-61
2024/01/12 08:01:40;;;;;;;3.55;1.38;;;18.20;32.10;;;;;;5000664;28;20030;-59
2024/01/12 08:04:07;;;;;;;3.42;1.30;;;18.20;32.10;;;;;;5003095;28;20055;-59
2024/01/12 08:06:32;;;;;;;1.90;1.00;;;18.20;32.70;;;;;;5004618;28;20450;-58
2024/01/12 08:08:58;;;;;;;2.97;1.50;;;18.20;32.00;;;;;;5001052;28;20091;-61
2024/01/12 08:11:24;;;;;;;3.35;1.40;;;18.20;32.00;;;;;;5001990;28;20018;-59
2024/01/12 08:13:50;;;;;;;3.33;1.40;;;18.30;32.00;;;;;;5001890;28;20055;-58
2024/01/12 08:16:16;;;;;;;4.00;1.45;;;18.20;32.00;;;;;;5000890;28;20434;-58
2024/01/12 08:18:42;;;;;;;3.90;1.23;;;18.20;32.00;;;;;;5001336;28;20350;-60
2024/01/12 08:21:08;;;;;;;4.13;1.25;;;18.20;32.00;;;;;;5001617;28;20065;-61
2024/01/12 08:23:33;;;;;;;2.88;1.13;;;18.20;32.10;;;;;;4999432;28;20426;-64
2024/01/12 08:25:59;;;;;;;5.00;1.63;;;18.20;32.10;;;;;;4999362;28;20019;-59
2024/01/12 08:28:25;;;;;;;4.57;1.40;;;18.20;32.10;;;;;;4997512;28;20404;-60
2024/01/12 08:30:51;;;;;;;3.28;1.20;;;18.20;32.20;;;;;;4994694;28;20148;-60
2024/01/12 08:33:17;;;;;;;2.88;1.20;;;18.20;32.20;;;;;;4991916;28;20034;-60
2024/01/12 08:35:43;;;;;;;3.17;1.67;;;18.30;32.20;;;;;;4995112;28;20202;-60
2024/01/12 08:38:09;;;;;;;3.22;1.20;;;18.30;32.20;;;;;;4995000;28;20034;-60
2024/01/12 08:40:35;;;;;;;4.93;1.55;;;18.30;32.10;;;;;;5002603;28;20096;-61
2024/01/12 08:43:02;;;;;;;3.17;1.50;;;18.40;32.10;;;;;;5005597;28;20038;-60
2024/01/12 08:45:27;;;;;;;2.70;1.25;;;18.40;32.10;;;;;;4996163;28;20026;-60
2024/01/12 08:47:54;;;;;;;3.55;1.52;;;18.50;32.10;;;;;;4998756;28;20030;-60
2024/01/12 08:50:20;;;;;;;3.92;1.63;;;18.50;32.00;;;;;;4994945;28;20023;-60
2024/01/12 08:52:46;;;;;;;2.33;1.40;;;18.60;32.10;;;;;;4999059;28;20022;-60
2024/01/12 08:55:12;;;;;;;2.58;1.20;;;18.60;32.00;;;;;;5011871;28;20030;-60
2024/01/12 08:57:40;;;;;;;2.67;1.40;;;18.70;32.00;;;;;;5010315;28;20076;-60
2024/01/12 09:00:06;;;;;;;4.63;1.60;;;18.80;32.00;;;;;;4998935;28;20042;-60
2024/01/12 09:02:32;;;;;;;2.75;1.40;;;18.80;31.90;;;;;;4999820;28;20085;-60
2024/01/12 09:04:58;;;;;;;4.15;1.67;;;18.90;31.90;;;;;;5002419;28;20026;-61
2024/01/12 09:07:24;;;;;;;3.88;1.40;;;18.90;31.80;;;;;;5003983;28;20142;-60
2024/01/12 09:09:50;;;;;;;4.55;1.60;;;18.90;31.80;;;;;;5008055;28;20030;-61
2024/01/12 09:12:15;;;;;;;4.35;1.58;;;19.00;31.80;;;;;;5004375;28;20045;-60
2024/01/12 09:14:41;;;;;;;4.30;1.30;;;19.10;32.40;;;;;;5006088;28;20048;-60
2024/01/12 09:17:07;;;;;;;3.85;1.70;;;19.10;31.70;;;;;;5003393;28;20488;-60
2024/01/12 09:19:33;;;;;;;4.40;1.50;;;19.10;31.70;;;;;;5006187;28;20096;-60
2024/01/12 09:21:58;;;;;;;4.25;1.60;;;19.20;31.70;;;;;;5009249;28;20049;-60
2024/01/12 09:24:24;;;;;;;3.92;1.58;;;19.20;31.60;;;;;;5005369;28;20022;-59
2024/01/12 09:26:50;;;;;;;6.00;1.58;;;19.30;31.60;;;;;;5002487;28;20053;-59
2024/01/12 09:29:15;;;;;;;3.63;1.27;;;19.30;31.60;;;;;;5004880;28;20457;-61
2024/01/12 09:31:41;;;;;;;2.45;1.23;;;19.30;31.50;;;;;;5012338;28;20348;-59
2024/01/12 09:34:07;;;;;;;4.03;1.48;;;19.40;31.50;;;;;;5005081;28;20018;-61
2024/01/12 09:36:33;;;;;;;2.45;1.35;;;19.40;31.40;;;;;;5003443;28;20057;-60
2024/01/12 09:38:59;;;;;;;2.88;1.40;;;19.40;31.30;;;;;;5004205;28;20157;-61
2024/01/12 09:41:45;;;;;;;2.50;1.30;;;19.50;31.30;;;;;;5008305;28;20038;-61
2024/01/12 09:44:17;;;;;;;4.10;1.80;;;19.50;31.30;;;;;;4999035;28;20357;-60
2024/01/12 09:46:57;;;;;;;3.38;1.40;;;19.50;31.30;;;;;;4999041;28;20109;-63
2024/01/12 09:49:24;;;;;;;3.53;1.58;;;19.60;31.30;;;;;;5000518;28;20156;-62
2024/01/12 09:51:50;;;;;;;3.80;1.20;;;19.60;31.20;;;;;;5000178;28;20058;-60
2024/01/12 09:54:17;;;;;;;3.35;1.20;;;19.60;31.20;;;;;;5000041;28;20069;-61
2024/01/12 09:56:44;;;;;;;3.53;1.48;;;19.60;31.10;;;;;;5007605;28;20017;-61
2024/01/12 09:59:11;;;;;;;4.57;1.45;;;19.70;31.20;;;;;;4997383;28;20374;-60
2024/01/12 10:01:41;;;;;;;3.03;1.65;;;19.70;31.20;;;;;;4995155;28;20056;-61
2024/01/12 10:04:07;;;;;;;4.10;1.33;;;19.70;31.10;;;;;;4996318;28;20104;-62
2024/01/12 10:06:47;;;;;;;2.35;1.23;;;19.70;31.10;;;;;;4995496;28;20064;-62
2024/01/12 10:09:13;;;;;;;3.60;1.33;;;19.70;31.10;;;;;;4995916;28;20026;-61
2024/01/12 10:11:38;;;;;;;3.05;1.15;;;19.80;31.10;;;;;;4998810;28;20109;-60
2024/01/12 10:14:04;;;;;;;2.75;1.20;;;19.80;31.10;;;;;;5005171;28;20046;-61
2024/01/12 10:16:30;;;;;;;4.10;1.58;;;19.80;31.10;;;;;;5010511;28;20034;-59
2024/01/12 10:18:57;;;;;;;3.33;1.40;;;19.70;31.00;;;;;;5009778;28;20357;-61
2024/01/12 10:21:24;;;;;;;3.40;1.40;;;19.80;31.10;;;;;;4997172;28;20038;-61
2024/01/12 10:23:59;;;;;;;4.38;1.50;;;19.80;31.10;;;;;;5003975;28;20034;-60
2024/01/12 10:26:25;;;;;;;3.47;1.30;;;19.80;31.10;;;;;;4999402;28;20030;-60
2024/01/12 10:28:50;;;;;;;3.22;1.27;;;19.80;31.00;;;;;;5001475;28;20029;-59
2024/01/12 10:31:16;;;;;;;4.00;1.65;;;19.80;31.00;;;;;;4999258;28;20113;-59
2024/01/12 10:33:44;;;;;;;3.13;1.17;;;19.80;31.00;;;;;;4997263;28;20037;-60
2024/01/12 10:36:21;;;;;;;3.83;0.93;;;19.80;31.00;;;;;;4994383;28;20041;-61
2024/01/12 10:38:51;;;;;;;2.80;1.00;;;19.80;30.90;;;;;;5006821;28;20445;-60
2024/01/12 10:41:21;;;;;;;3.38;1.20;;;19.90;30.90;;;;;;4999410;28;20034;-60
2024/01/12 10:43:51;;;;;;;2.75;1.33;;;19.90;30.90;;;;;;5010918;28;20133;-61
2024/01/12 10:46:26;;;;;;;4.32;1.50;;;19.90;30.90;;;;;;5011785;28;20021;-61
2024/01/12 10:49:02;;;;;;;3.20;1.40;;;20.00;30.90;;;;;;5003688;28;20116;-59
2024/01/12 10:51:33;;;;;;;1.80;1.05;;;20.00;30.80;;;;;;4997591;28;20049;-62
2024/01/12 10:54:12;;;;;;;3.38;1.25;;;20.00;30.80;;;;;;4995511;28;20019;-60
2024/01/12 10:56:41;;;;;;;3.08;1.30;;;20.10;30.80;;;;;;4997855;28;20030;-60
2024/01/12 10:59:07;;;;;;;2.28;1.27;;;20.00;30.80;;;;;;4999242;28;20025;-61
2024/01/12 11:01:34;;;;;;;2.47;1.10;;;20.10;30.80;;;;;;5007256;28;20115;-61
2024/01/12 11:04:02;;;;;;;4.05;1.50;;;20.10;30.70;;;;;;4997961;28;20038;-60
2024/01/12 11:06:29;;;;;;;2.58;1.30;;;20.10;30.70;;;;;;4999048;28;20353;-60
2024/01/12 11:08:56;;;;;;;2.67;1.15;;;20.10;30.60;;;;;;5003239;28;20117;-60
2024/01/12 11:11:24;;;;;;;2.72;1.17;;;20.20;30.60;;;;;;5003992;28;20044;-61
2024/01/12 11:13:50;;;;;;;2.15;1.08;;;20.10;30.60;;;;;;5009307;28;20073;-61
2024/01/12 11:16:17;;;;;;;2.75;1.20;;;20.20;30.60;;;;;;4999037;28;20030;-61
2024/01/12 11:18:43;;;;;;;2.85;1.30;;;20.20;30.60;;;;;;4997344;28;20026;-62
2024/01/12 11:21:09;;;;;;;3.45;1.30;;;20.20;30.60;;;;;;4997510;28;20078;-62
2024/01/12 11:23:40;;;;;;;3.03;1.20;;;20.20;30.60;;;;;;5005516;28;20022;-61
2024/01/12 11:26:08;;;;;;;2.70;1.30;;;20.30;30.70;;;;;;5004176;28;20476;-61
2024/01/12 11:28:38;;;;;;;3.33;1.30;;;20.20;30.60;;;;;;4998892;28;20357;-61
2024/01/12 11:31:04;;;;;;;2.85;1.60;;;20.30;30.70;;;;;;5010247;28;20041;-61
2024/01/12 11:33:31;;;;;;;2.45;1.13;;;20.20;30.60;;;;;;4992218;28;20519;-61
2024/01/12 11:36:01;;;;;;;3.25;1.35;;;20.30;30.70;;;;;;4999640;28;20041;-61
2024/01/12 11:38:38;;;;;;;3.10;1.50;;;20.20;30.60;;;;;;5008673;28;20041;-61
2024/01/12 11:41:12;;;;;;;2.10;1.10;;;20.20;30.60;;;;;;4995940;28;20046;-60
2024/01/12 11:43:39;;;;;;;3.50;1.50;;;20.20;30.60;;;;;;5004318;28;20029;-61
2024/01/12 11:46:05;;;;;;;3.35;1.30;;;20.20;30.70;;;;;;5005449;28;20041;-61
2024/01/12 11:48:32;;;;;;;3.08;1.17;;;20.20;30.70;;;;;;5003260;28;20034;-61
2024/01/12 11:50:58;;;;;;;3.22;1.30;;;20.20;30.70;;;;;;5003536;28;20038;-61
2024/01/12 11:53:23;;;;;;;2.13;1.42;;;20.20;30.70;;;;;;5000163;28;20057;-60
2024/01/12 11:55:49;;;;;;;3.22;1.10;;;20.20;30.70;;;;;;5004058;28;20446;-61
2024/01/12 11:58:15;;;;;;;3.45;1.48;;;20.20;30.70;;;;;;4996383;28;20041;-61
2024/01/12 12:00:41;;;;;;;3.55;1.50;;;20.20;30.70;;;;;;5004566;28;20034;-61
2024/01/12 12:03:11;;;;;;;2.70;1.20;;;20.20;30.80;;;;;;4993439;28;20033;-60
2024/01/12 12:05:37;;;;;;;2.25;1.13;;;20.20;30.80;;;;;;4993472;28;20037;-61
2024/01/12 12:08:03;;;;;;;3.38;1.50;;;20.20;30.80;;;;;;4994371;28;20458;-61
2024/01/12 12:10:29;;;;;;;2.80;1.20;;;20.20;31.40;;;;;;4995988;28;20035;-61
2024/01/12 12:12:55;;;;;;;3.35;1.58;;;20.10;30.80;;;;;;5003732;28;20034;-61
2024/01/12 12:15:21;;;;;;;3.53;1.45;;;20.20;30.80;;;;;;4998946;28;20037;-60
2024/01/12 12:17:48;;;;;;;2.78;1.27;;;20.10;30.80;;;;;;5000390;28;20026;-59
2024/01/12 12:20:15;;;;;;;2.72;1.38;;;20.10;30.80;;;;;;5001839;28;20046;-60
2024/01/12 12:22:42;;;;;;;2.83;1.27;;;20.10;30.90;;;;;;5002688;28;20406;-61
2024/01/12 12:25:12;;;;;;;2.88;1.15;;;20.10;31.00;;;;;;5003095;28;20366;-61
2024/01/12 12:27:39;;;;;;;3.03;1.40;;;20.10;31.00;;;;;;5000230;28;20038;-60
2024/01/12 12:30:13;;;;;;;2.53;1.20;;;20.10;31.00;;;;;;5001014;28;20442;-60
2024/01/12 12:32:39;;;;;;;3.17;1.42;;;20.10;31.10;;;;;;4999956;28;20030;-64
2024/01/12 12:35:32;;;;;;;2.30;1.23;;;20.10;31.10;;;;;;4998615;28;20457;-61
2024/01/12 12:38:01;;;;;;;3.45;1.40;;;20.10;31.10;;;;;;4997558;28;20044;-62
2024/01/12 12:40:27;;;;;;;2.58;1.00;;;20.10;31.20;;;;;;4997219;28;20062;-60
2024/01/12 12:42:53;;;;;;;3.38;1.30;;;20.10;31.20;;;;;;4998387;28;20473;-60
2024/01/12 12:45:23;;;;;;;3.22;1.13;;;20.10;31.20;;;;;;4996754;28;20033;-61